createdAt,value
2018-10-06T00:00:15.117Z,819.30
2018-10-06T00:01:15.134Z,819.32
2018-10-06T00:02:15.151Z,819.27
2018-10-06T00:03:15.172Z,819.30
2018-10-06T00:04:15.182Z,819.29
2018-10-06T00:05:15.226Z,819.30
2018-10-06T00:06:15.214Z,819.29
2018-10-06T00:07:15.230Z,819.27
2018-10-06T00:08:15.245Z,819.30
2018-10-06T00:09:15.259Z,819.25
2018-10-06T00:10:15.282Z,819.26
2018-10-06T00:11:15.294Z,819.29
2018-10-06T00:12:15.308Z,819.28
2018-10-06T00:13:15.324Z,819.28
2018-10-06T00:14:15.342Z,819.24
2018-10-06T00:15:15.359Z,819.23
2018-10-06T00:16:15.375Z,819.25
2018-10-06T00:17:15.392Z,819.28
2018-10-06T00:18:15.409Z,819.23
2018-10-06T00:19:15.424Z,819.24
2018-10-06T00:20:15.442Z,819.24
2018-10-06T00:21:15.453Z,819.24
2018-10-06T00:22:15.472Z,819.23
2018-10-06T00:23:15.486Z,819.23
2018-10-06T00:24:15.502Z,819.20
2018-10-06T00:25:15.519Z,819.20
2018-10-06T00:26:15.536Z,819.14
2018-10-06T00:27:15.551Z,819.16
2018-10-06T00:28:15.568Z,819.22
2018-10-06T00:29:15.588Z,819.21
2018-10-06T00:30:15.598Z,819.20
2018-10-06T00:31:15.618Z,819.26
2018-10-06T00:32:15.632Z,819.19
2018-10-06T00:33:15.648Z,819.22
2018-10-06T00:34:15.663Z,819.21
2018-10-06T00:35:15.689Z,819.21
2018-10-06T00:36:15.695Z,819.23
2018-10-06T00:37:15.710Z,819.25
2018-10-06T00:38:15.728Z,819.22
2018-10-06T00:39:15.744Z,819.25
2018-10-06T00:40:15.766Z,819.21
2018-10-06T00:41:15.780Z,819.18
2018-10-06T00:42:15.793Z,819.16
2018-10-06T00:43:15.809Z,819.16
2018-10-06T00:44:15.822Z,819.16
2018-10-06T00:45:15.837Z,819.15
2018-10-06T00:46:15.856Z,819.15
2018-10-06T00:47:15.921Z,819.10
2018-10-06T00:48:15.885Z,819.10
2018-10-06T00:49:15.903Z,819.10
2018-10-06T00:50:15.918Z,819.12
2018-10-06T00:51:15.935Z,819.08
2018-10-06T00:52:15.951Z,819.08
2018-10-06T00:53:15.967Z,819.04
2018-10-06T00:54:15.985Z,819.05
2018-10-06T00:55:16.002Z,819.03
2018-10-06T00:56:16.016Z,819.01
2018-10-06T00:57:16.030Z,818.99
2018-10-06T00:58:16.044Z,819.00
2018-10-06T00:59:16.063Z,818.96
2018-10-06T01:00:16.077Z,818.94
2018-10-06T01:01:16.093Z,818.93
2018-10-06T01:02:16.114Z,818.90
2018-10-06T01:03:16.125Z,818.93
2018-10-06T01:04:16.141Z,818.88
2018-10-06T01:05:16.159Z,818.89
2018-10-06T01:06:16.172Z,818.88
2018-10-06T01:07:16.190Z,818.87
2018-10-06T01:08:16.205Z,818.84
2018-10-06T01:09:16.219Z,818.83
2018-10-06T01:10:16.239Z,818.86
2018-10-06T01:11:16.255Z,818.82
2018-10-06T01:12:16.273Z,818.81
2018-10-06T01:13:16.284Z,818.79
2018-10-06T01:14:16.298Z,818.77
2018-10-06T01:15:16.316Z,818.73
2018-10-06T01:16:16.331Z,818.76
2018-10-06T01:17:16.347Z,818.73
2018-10-06T01:18:16.365Z,818.72
2018-10-06T01:19:16.379Z,818.75
2018-10-06T01:20:16.392Z,818.74
2018-10-06T01:21:16.412Z,818.76
2018-10-06T01:22:16.425Z,818.69
2018-10-06T01:23:16.443Z,818.69
2018-10-06T01:24:16.461Z,818.64
2018-10-06T01:25:16.476Z,818.67
2018-10-06T01:26:16.489Z,818.67
2018-10-06T01:27:16.507Z,818.65
2018-10-06T01:28:16.523Z,818.63
2018-10-06T01:29:16.536Z,818.67
2018-10-06T01:30:16.551Z,818.62
2018-10-06T01:31:16.567Z,818.61
2018-10-06T01:32:16.588Z,818.62
2018-10-06T01:33:16.604Z,818.61
2018-10-06T01:34:16.615Z,818.61
2018-10-06T01:35:16.631Z,818.56
2018-10-06T01:36:16.645Z,818.59
2018-10-06T01:37:16.663Z,818.57
2018-10-06T01:38:16.678Z,818.57
2018-10-06T01:39:16.694Z,818.56
2018-10-06T01:40:16.708Z,818.56
2018-10-06T01:41:16.724Z,818.53
2018-10-06T01:42:16.742Z,818.56
2018-10-06T01:43:16.758Z,818.54
2018-10-06T01:44:16.771Z,818.52
2018-10-06T01:45:16.791Z,818.55
2018-10-06T01:46:16.804Z,818.52
2018-10-06T01:47:16.819Z,818.52
2018-10-06T01:48:16.835Z,818.48
2018-10-06T01:49:16.854Z,818.48
2018-10-06T01:50:16.868Z,818.53
2018-10-06T01:51:16.883Z,818.51
2018-10-06T01:52:16.899Z,818.52
2018-10-06T01:53:16.913Z,818.52
2018-10-06T01:54:16.927Z,818.51
2018-10-06T01:55:16.946Z,818.50
2018-10-06T01:56:16.961Z,818.47
2018-10-06T01:57:16.977Z,818.48
2018-10-06T01:58:16.992Z,818.49
2018-10-06T01:59:17.008Z,818.53
2018-10-06T02:00:17.023Z,818.48
2018-10-06T02:01:17.037Z,818.49
2018-10-06T02:02:17.058Z,818.50
2018-10-06T02:03:17.072Z,818.48
2018-10-06T02:04:17.092Z,818.49
2018-10-06T02:05:17.102Z,818.48
2018-10-06T02:06:17.119Z,818.46
2018-10-06T02:07:17.135Z,818.46
2018-10-06T02:08:17.151Z,818.43
2018-10-06T02:09:17.167Z,818.46
2018-10-06T02:10:17.184Z,818.42
2018-10-06T02:11:17.198Z,818.43
2018-10-06T02:12:17.218Z,818.45
2018-10-06T02:13:17.230Z,818.45
2018-10-06T02:14:17.246Z,818.43
2018-10-06T02:15:17.263Z,818.44
2018-10-06T02:16:17.280Z,818.43
2018-10-06T02:17:17.293Z,818.38
2018-10-06T02:18:17.310Z,818.40
2018-10-06T02:19:17.327Z,818.39
2018-10-06T02:20:17.339Z,818.42
2018-10-06T02:21:17.358Z,818.38
2018-10-06T02:22:17.373Z,818.38
2018-10-06T02:23:17.387Z,818.38
2018-10-06T02:24:17.404Z,818.39
2018-10-06T02:25:17.420Z,818.34
2018-10-06T02:26:17.436Z,818.39
2018-10-06T02:27:17.453Z,818.32
2018-10-06T02:28:17.468Z,818.30
2018-10-06T02:29:17.486Z,818.32
2018-10-06T02:30:17.619Z,818.32
2018-10-06T02:31:17.516Z,818.32
2018-10-06T02:32:17.536Z,818.28
2018-10-06T02:33:17.549Z,818.30
2018-10-06T02:34:17.566Z,818.28
2018-10-06T02:35:17.579Z,818.27
2018-10-06T02:36:17.595Z,818.25
2018-10-06T02:37:17.613Z,818.24
2018-10-06T02:38:17.631Z,818.24
2018-10-06T02:39:17.646Z,818.24
2018-10-06T02:40:17.660Z,818.23
2018-10-06T02:41:17.676Z,818.23
2018-10-06T02:42:17.693Z,818.24
2018-10-06T02:43:17.712Z,818.26
2018-10-06T02:44:17.724Z,818.26
2018-10-06T02:45:17.742Z,818.27
2018-10-06T02:46:17.758Z,818.26
2018-10-06T02:47:17.774Z,818.25
2018-10-06T02:48:17.790Z,818.25
2018-10-06T02:49:17.804Z,818.23
2018-10-06T02:50:17.821Z,818.23
2018-10-06T02:51:17.835Z,818.19
2018-10-06T02:52:17.851Z,818.20
2018-10-06T02:53:17.869Z,818.22
2018-10-06T02:54:17.882Z,818.18
2018-10-06T02:55:17.899Z,818.20
2018-10-06T02:56:17.920Z,818.22
2018-10-06T02:57:17.931Z,818.23
2018-10-06T02:58:17.947Z,818.18
2018-10-06T02:59:17.966Z,818.21
2018-10-06T03:00:17.982Z,818.22
2018-10-06T03:01:17.995Z,818.22
2018-10-06T03:02:18.014Z,818.22
2018-10-06T03:03:18.027Z,818.26
2018-10-06T03:04:18.043Z,818.23
2018-10-06T03:05:18.057Z,818.20
2018-10-06T03:06:18.075Z,818.19
2018-10-06T03:07:18.091Z,818.19
2018-10-06T03:08:18.105Z,818.24
2018-10-06T03:09:18.122Z,818.17
2018-10-06T03:10:18.140Z,818.16
2018-10-06T03:11:18.153Z,818.18
2018-10-06T03:12:18.169Z,818.16
2018-10-06T03:13:18.193Z,818.13
2018-10-06T03:14:18.208Z,818.14
2018-10-06T03:15:18.218Z,818.13
2018-10-06T03:16:18.234Z,818.14
2018-10-06T03:17:18.257Z,818.12
2018-10-06T03:18:18.267Z,818.11
2018-10-06T03:19:18.283Z,818.10
2018-10-06T03:20:18.300Z,818.11
2018-10-06T03:21:18.313Z,818.08
2018-10-06T03:22:18.331Z,818.11
2018-10-06T03:23:18.348Z,818.07
2018-10-06T03:24:18.362Z,818.06
2018-10-06T03:25:18.389Z,818.02
2018-10-06T03:26:18.396Z,818.03
2018-10-06T03:27:18.411Z,818.01
2018-10-06T03:28:18.426Z,818.04
2018-10-06T03:29:18.448Z,818.02
2018-10-06T03:30:18.456Z,818.04
2018-10-06T03:31:18.477Z,818.03
2018-10-06T03:32:18.489Z,818.04
2018-10-06T03:33:18.506Z,817.96
2018-10-06T03:34:18.520Z,817.99
2018-10-06T03:35:18.536Z,818.00
2018-10-06T03:36:18.551Z,818.00
2018-10-06T03:37:18.569Z,818.00
2018-10-06T03:38:18.584Z,817.98
2018-10-06T03:39:18.606Z,817.97
2018-10-06T03:40:18.613Z,818.00
2018-10-06T03:41:18.634Z,817.93
2018-10-06T03:42:18.651Z,817.93
2018-10-06T03:43:18.664Z,817.88
2018-10-06T03:44:18.678Z,817.89
2018-10-06T03:45:18.695Z,817.88
2018-10-06T03:46:18.711Z,817.86
2018-10-06T03:47:18.729Z,817.81
2018-10-06T03:48:18.743Z,817.81
2018-10-06T03:49:18.759Z,817.86
2018-10-06T03:50:18.776Z,817.80
2018-10-06T03:51:18.792Z,817.80
2018-10-06T03:52:18.808Z,817.81
2018-10-06T03:53:18.821Z,817.77
2018-10-06T03:54:18.837Z,817.78
2018-10-06T03:55:18.855Z,817.79
2018-10-06T03:56:18.875Z,817.76
2018-10-06T03:57:18.886Z,817.77
2018-10-06T03:58:18.900Z,817.77
2018-10-06T03:59:18.920Z,817.76
2018-10-06T04:00:18.933Z,817.80
2018-10-06T04:01:18.949Z,817.74
2018-10-06T04:02:18.965Z,817.75
2018-10-06T04:03:18.980Z,817.77
2018-10-06T04:04:18.998Z,817.72
2018-10-06T04:05:19.015Z,817.73
2018-10-06T04:06:19.034Z,817.72
2018-10-06T04:07:19.045Z,817.72
2018-10-06T04:08:19.060Z,817.70
2018-10-06T04:09:19.078Z,817.70
2018-10-06T04:10:19.093Z,817.74
2018-10-06T04:11:19.108Z,817.69
2018-10-06T04:12:19.134Z,817.70
2018-10-06T04:13:19.141Z,817.70
2018-10-06T04:14:19.155Z,817.65
2018-10-06T04:15:19.175Z,817.69
2018-10-06T04:16:19.186Z,817.63
2018-10-06T04:17:19.205Z,817.67
2018-10-06T04:18:19.220Z,817.65
2018-10-06T04:19:19.238Z,817.64
2018-10-06T04:20:19.251Z,817.61
2018-10-06T04:21:19.266Z,817.63
2018-10-06T04:22:19.283Z,817.60
2018-10-06T04:23:19.299Z,817.61
2018-10-06T04:24:19.313Z,817.60
2018-10-06T04:25:19.331Z,817.58
2018-10-06T04:26:19.347Z,817.56
2018-10-06T04:27:19.365Z,817.57
2018-10-06T04:28:19.406Z,817.57
2018-10-06T04:29:19.394Z,817.55
2018-10-06T04:30:19.412Z,817.51
2018-10-06T04:31:19.427Z,817.50
2018-10-06T04:32:19.442Z,817.52
2018-10-06T04:33:19.458Z,817.52
2018-10-06T04:34:19.483Z,817.48
2018-10-06T04:35:19.492Z,817.50
2018-10-06T04:36:19.504Z,817.53
2018-10-06T04:37:19.522Z,817.50
2018-10-06T04:38:19.537Z,817.53
2018-10-06T04:39:19.553Z,817.51
2018-10-06T04:40:19.567Z,817.50
2018-10-06T04:41:19.591Z,817.52
2018-10-06T04:42:19.600Z,817.47
2018-10-06T04:43:19.616Z,817.49
2018-10-06T04:44:19.633Z,817.49
2018-10-06T04:45:19.646Z,817.47
2018-10-06T04:46:19.662Z,817.48
2018-10-06T04:47:19.681Z,817.49
2018-10-06T04:48:19.706Z,817.48
2018-10-06T04:49:19.710Z,817.50
2018-10-06T04:50:19.728Z,817.50
2018-10-06T04:51:19.743Z,817.49
2018-10-06T04:52:19.763Z,817.50
2018-10-06T04:53:19.842Z,817.46
2018-10-06T04:54:19.792Z,817.47
2018-10-06T04:55:19.808Z,817.46
2018-10-06T04:56:19.819Z,817.47
2018-10-06T04:57:19.836Z,817.44
2018-10-06T04:58:19.856Z,817.40
2018-10-06T04:59:19.868Z,817.45
2018-10-06T05:00:19.884Z,817.44
2018-10-06T05:01:19.904Z,817.43
2018-10-06T05:02:19.918Z,817.44
2018-10-06T05:03:20.005Z,817.41
2018-10-06T05:04:19.947Z,817.39
2018-10-06T05:05:19.967Z,817.40
2018-10-06T05:06:19.977Z,817.39
2018-10-06T05:07:19.995Z,817.40
2018-10-06T05:08:20.007Z,817.36
2018-10-06T05:09:20.023Z,817.37
2018-10-06T05:10:20.043Z,817.37
2018-10-06T05:11:20.059Z,817.36
2018-10-06T05:12:20.075Z,817.37
2018-10-06T05:13:20.088Z,817.36
2018-10-06T05:14:20.105Z,817.32
2018-10-06T05:15:20.130Z,817.36
2018-10-06T05:16:20.134Z,817.32
2018-10-06T05:17:20.151Z,817.33
2018-10-06T05:18:20.164Z,817.33
2018-10-06T05:19:20.182Z,817.34
2018-10-06T05:20:20.199Z,817.33
2018-10-06T05:21:20.214Z,817.33
2018-10-06T05:22:20.231Z,817.31
2018-10-06T05:23:20.317Z,817.30
2018-10-06T05:24:20.264Z,817.32
2018-10-06T05:25:20.276Z,817.33
2018-10-06T05:26:20.291Z,817.30
2018-10-06T05:27:20.308Z,817.30
2018-10-06T05:28:20.324Z,817.30
2018-10-06T05:29:20.338Z,817.30
2018-10-06T05:30:20.360Z,817.30
2018-10-06T05:31:20.378Z,817.29
2018-10-06T05:32:20.388Z,817.28
2018-10-06T05:33:20.401Z,817.34
2018-10-06T05:34:20.418Z,817.31
2018-10-06T05:35:20.433Z,817.30
2018-10-06T05:36:20.449Z,817.32
2018-10-06T05:37:20.465Z,817.31
2018-10-06T05:38:20.485Z,817.28
2018-10-06T05:39:20.500Z,817.25
2018-10-06T05:40:20.511Z,817.27
2018-10-06T05:41:20.529Z,817.30
2018-10-06T05:42:20.543Z,817.32
2018-10-06T05:43:20.561Z,817.28
2018-10-06T05:44:20.576Z,817.28
2018-10-06T05:45:20.593Z,817.28
2018-10-06T05:46:20.651Z,817.27
2018-10-06T05:47:20.620Z,817.26
2018-10-06T05:48:20.637Z,817.24
2018-10-06T05:49:20.652Z,817.27
2018-10-06T05:50:20.673Z,817.26
2018-10-06T05:51:20.684Z,817.24
2018-10-06T05:52:20.701Z,817.28
2018-10-06T05:53:20.715Z,817.28
2018-10-06T05:54:20.731Z,817.26
2018-10-06T05:55:20.747Z,817.31
2018-10-06T05:56:20.763Z,817.31
2018-10-06T05:57:20.780Z,817.28
2018-10-06T05:58:20.798Z,817.34
2018-10-06T05:59:20.810Z,817.28
2018-10-06T06:00:20.824Z,817.30
2018-10-06T06:01:20.842Z,817.32
2018-10-06T06:02:20.856Z,817.29
2018-10-06T06:03:20.874Z,817.29
2018-10-06T06:04:20.887Z,817.30
2018-10-06T06:05:20.905Z,817.32
2018-10-06T06:06:20.921Z,817.32
2018-10-06T06:07:20.938Z,817.29
2018-10-06T06:08:20.960Z,817.27
2018-10-06T06:09:21.046Z,817.30
2018-10-06T06:10:20.983Z,817.33
2018-10-06T06:11:21.001Z,817.30
2018-10-06T06:12:21.015Z,817.31
2018-10-06T06:13:21.030Z,817.32
2018-10-06T06:14:21.048Z,817.31
2018-10-06T06:15:21.062Z,817.34
2018-10-06T06:16:21.079Z,817.29
2018-10-06T06:17:21.095Z,817.35
2018-10-06T06:18:21.111Z,817.35
2018-10-06T06:19:21.125Z,817.34
2018-10-06T06:20:21.140Z,817.34
2018-10-06T06:21:21.160Z,817.31
2018-10-06T06:22:21.177Z,817.32
2018-10-06T06:23:21.193Z,817.35
2018-10-06T06:24:21.204Z,817.34
2018-10-06T06:25:21.219Z,817.35
2018-10-06T06:26:21.236Z,817.33
2018-10-06T06:27:21.254Z,817.38
2018-10-06T06:28:21.267Z,817.36
2018-10-06T06:29:21.283Z,817.37
2018-10-06T06:30:21.300Z,817.39
2018-10-06T06:31:21.397Z,817.39
2018-10-06T06:32:21.356Z,817.38
2018-10-06T06:33:21.348Z,817.41
2018-10-06T06:34:21.363Z,817.41
2018-10-06T06:35:21.378Z,817.38
2018-10-06T06:36:21.398Z,817.42
2018-10-06T06:37:21.411Z,817.37
2018-10-06T06:38:21.500Z,817.44
2018-10-06T06:39:21.443Z,817.44
2018-10-06T06:40:21.455Z,817.43
2018-10-06T06:41:21.474Z,817.45
2018-10-06T06:42:21.489Z,817.42
2018-10-06T06:43:21.509Z,817.41
2018-10-06T06:44:21.652Z,817.41
2018-10-06T06:45:21.536Z,817.43
2018-10-06T06:46:21.552Z,817.38
2018-10-06T06:47:21.566Z,817.38
2018-10-06T06:48:21.582Z,817.37
2018-10-06T06:49:21.599Z,817.40
2018-10-06T06:50:21.615Z,817.37
2018-10-06T06:51:21.634Z,817.39
2018-10-06T06:52:21.647Z,817.42
2018-10-06T06:53:21.662Z,817.41
2018-10-06T06:54:21.679Z,817.41
2018-10-06T06:55:21.695Z,817.42
2018-10-06T06:56:21.712Z,817.42
2018-10-06T06:57:21.727Z,817.42
2018-10-06T06:58:21.743Z,817.41
2018-10-06T06:59:21.758Z,817.41
2018-10-06T07:00:21.777Z,817.40
2018-10-06T07:01:21.789Z,817.41
2018-10-06T07:02:21.808Z,817.43
2018-10-06T07:03:21.823Z,817.42
2018-10-06T07:04:21.839Z,817.42
2018-10-06T07:05:21.851Z,817.43
2018-10-06T07:06:21.870Z,817.41
2018-10-06T07:07:21.887Z,817.42
2018-10-06T07:08:21.902Z,817.40
2018-10-06T07:09:21.918Z,817.40
2018-10-06T07:10:21.935Z,817.42
2018-10-06T07:11:21.948Z,817.41
2018-10-06T07:12:21.965Z,817.44
2018-10-06T07:13:21.982Z,817.45
2018-10-06T07:14:21.996Z,817.42
2018-10-06T07:15:22.015Z,817.39
2018-10-06T07:16:22.026Z,817.42
2018-10-06T07:17:22.045Z,817.40
2018-10-06T07:18:22.125Z,817.42
2018-10-06T07:19:22.077Z,817.42
2018-10-06T07:20:22.091Z,817.42
2018-10-06T07:21:22.106Z,817.41
2018-10-06T07:22:22.125Z,817.45
2018-10-06T07:23:22.139Z,817.44
2018-10-06T07:24:22.154Z,817.44
2018-10-06T07:25:22.185Z,817.46
2018-10-06T07:26:22.188Z,817.45
2018-10-06T07:27:22.201Z,817.47
2018-10-06T07:28:22.252Z,817.47
2018-10-06T07:29:22.236Z,817.47
2018-10-06T07:30:22.252Z,817.49
2018-10-06T07:31:22.268Z,817.47
2018-10-06T07:32:22.282Z,817.49
2018-10-06T07:33:22.298Z,817.48
2018-10-06T07:34:22.316Z,817.49
2018-10-06T07:35:22.330Z,817.48
2018-10-06T07:36:22.345Z,817.49
2018-10-06T07:37:22.362Z,817.54
2018-10-06T07:38:22.380Z,817.52
2018-10-06T07:39:22.393Z,817.49
2018-10-06T07:40:22.407Z,817.49
2018-10-06T07:41:22.427Z,817.51
2018-10-06T07:42:22.443Z,817.50
2018-10-06T07:43:22.457Z,817.55
2018-10-06T07:44:22.470Z,817.53
2018-10-06T07:45:22.487Z,817.51
2018-10-06T07:46:22.505Z,817.51
2018-10-06T07:47:22.520Z,817.51
2018-10-06T07:48:22.534Z,817.52
2018-10-06T07:49:22.555Z,817.55
2018-10-06T07:50:22.572Z,817.54
2018-10-06T07:51:22.583Z,817.54
2018-10-06T07:52:22.600Z,817.55
2018-10-06T07:53:22.615Z,817.56
2018-10-06T07:54:22.630Z,817.60
2018-10-06T07:55:22.653Z,817.54
2018-10-06T07:56:22.663Z,817.62
2018-10-06T07:57:22.678Z,817.59
2018-10-06T07:58:22.697Z,817.59
2018-10-06T07:59:22.749Z,817.53
2018-10-06T08:00:22.724Z,817.60
2018-10-06T08:01:22.740Z,817.55
2018-10-06T08:02:22.756Z,817.57
2018-10-06T08:03:22.772Z,817.57
2018-10-06T08:04:22.786Z,817.56
2018-10-06T08:05:22.803Z,817.58
2018-10-06T08:06:22.855Z,817.55
2018-10-06T08:07:22.835Z,817.55
2018-10-06T08:08:22.852Z,817.53
2018-10-06T08:09:22.869Z,817.54
2018-10-06T08:10:22.883Z,817.55
2018-10-06T08:11:22.899Z,817.59
2018-10-06T08:12:22.912Z,817.56
2018-10-06T08:13:22.928Z,817.58
2018-10-06T08:14:22.945Z,817.55
2018-10-06T08:15:22.960Z,817.55
2018-10-06T08:16:22.980Z,817.52
2018-10-06T08:17:22.993Z,817.54
2018-10-06T08:18:23.008Z,817.53
2018-10-06T08:19:23.024Z,817.46
2018-10-06T08:20:23.038Z,817.50
2018-10-06T08:21:23.055Z,817.50
2018-10-06T08:22:23.072Z,817.47
2018-10-06T08:23:23.087Z,817.48
2018-10-06T08:24:23.102Z,817.45
2018-10-06T08:25:23.118Z,817.46
2018-10-06T08:26:23.135Z,817.48
2018-10-06T08:27:23.150Z,817.49
2018-10-06T08:28:23.167Z,817.45
2018-10-06T08:29:23.189Z,817.46
2018-10-06T08:30:23.199Z,817.47
2018-10-06T08:31:23.215Z,817.47
2018-10-06T08:32:23.232Z,817.47
2018-10-06T08:33:23.247Z,817.47
2018-10-06T08:34:23.263Z,817.46
2018-10-06T08:35:23.289Z,817.44
2018-10-06T08:36:23.294Z,817.44
2018-10-06T08:37:23.309Z,817.47
2018-10-06T08:38:23.325Z,817.45
2018-10-06T08:39:23.343Z,817.42
2018-10-06T08:40:23.358Z,817.45
2018-10-06T08:41:23.375Z,817.45
2018-10-06T08:42:23.390Z,817.47
2018-10-06T08:43:23.410Z,817.43
2018-10-06T08:44:23.426Z,817.44
2018-10-06T08:45:23.441Z,817.44
2018-10-06T08:46:23.456Z,817.44
2018-10-06T08:47:23.473Z,817.45
2018-10-06T08:48:23.492Z,817.45
2018-10-06T08:49:23.506Z,817.46
2018-10-06T08:50:23.521Z,817.42
2018-10-06T08:51:23.540Z,817.44
2018-10-06T08:52:23.552Z,817.45
2018-10-06T08:53:23.568Z,817.41
2018-10-06T08:54:23.586Z,817.40
2018-10-06T08:55:23.603Z,817.38
2018-10-06T08:56:23.645Z,817.37
2018-10-06T08:57:23.635Z,817.35
2018-10-06T08:58:23.653Z,817.36
2018-10-06T08:59:23.668Z,817.34
2018-10-06T09:00:23.685Z,817.32
2018-10-06T09:01:23.702Z,817.36
2018-10-06T09:02:23.717Z,817.30
2018-10-06T09:03:23.735Z,817.35
2018-10-06T09:04:23.802Z,817.29
2018-10-06T09:05:23.767Z,817.33
2018-10-06T09:06:23.786Z,817.30
2018-10-06T09:07:23.801Z,817.27
2018-10-06T09:08:23.816Z,817.29
2018-10-06T09:09:23.835Z,817.31
2018-10-06T09:10:23.849Z,817.35
2018-10-06T09:11:23.865Z,817.31
2018-10-06T09:12:23.882Z,817.35
2018-10-06T09:13:23.904Z,817.36
2018-10-06T09:14:23.915Z,817.33
2018-10-06T09:15:23.945Z,817.27
2018-10-06T09:16:23.948Z,817.31
2018-10-06T09:17:23.963Z,817.30
2018-10-06T09:18:23.978Z,817.31
2018-10-06T09:19:23.998Z,817.30
2018-10-06T09:20:24.016Z,817.27
2018-10-06T09:21:24.030Z,817.26
2018-10-06T09:22:24.047Z,817.26
2018-10-06T09:23:24.067Z,817.24
2018-10-06T09:24:24.082Z,817.24
2018-10-06T09:25:24.097Z,817.18
2018-10-06T09:26:24.114Z,817.22
2018-10-06T09:27:24.131Z,817.16
2018-10-06T09:28:24.151Z,817.19
2018-10-06T09:29:24.164Z,817.22
2018-10-06T09:30:24.184Z,817.16
2018-10-06T09:31:24.197Z,817.16
2018-10-06T09:32:24.214Z,817.13
2018-10-06T09:33:24.228Z,817.10
2018-10-06T09:34:24.247Z,817.12
2018-10-06T09:35:24.263Z,817.14
2018-10-06T09:36:24.281Z,817.11
2018-10-06T09:37:24.298Z,817.05
2018-10-06T09:38:24.311Z,817.03
2018-10-06T09:39:24.331Z,817.04
2018-10-06T09:40:24.346Z,817.03
2018-10-06T09:41:24.366Z,816.95
2018-10-06T09:42:24.410Z,817.00
2018-10-06T09:43:24.397Z,816.96
2018-10-06T09:44:24.414Z,816.98
2018-10-06T09:45:24.429Z,816.96
2018-10-06T09:46:24.449Z,816.97
2018-10-06T09:47:24.467Z,816.94
2018-10-06T09:48:24.485Z,816.98
2018-10-06T09:49:24.498Z,817.01
2018-10-06T09:50:24.517Z,816.95
2018-10-06T09:51:24.535Z,816.99
2018-10-06T09:52:24.557Z,816.94
2018-10-06T09:53:24.572Z,816.98
2018-10-06T09:54:24.587Z,816.95
2018-10-06T09:55:24.607Z,816.90
2018-10-06T09:56:24.623Z,816.94
2018-10-06T09:57:24.641Z,816.94
2018-10-06T09:58:24.657Z,816.99
2018-10-06T09:59:24.744Z,816.98
2018-10-06T10:00:24.695Z,816.94
2018-10-06T10:01:24.710Z,816.98
2018-10-06T10:02:24.728Z,816.97
2018-10-06T10:03:24.743Z,816.94
2018-10-06T10:04:24.813Z,816.95
2018-10-06T10:05:24.834Z,816.95
2018-10-06T10:06:24.797Z,816.89
2018-10-06T10:07:24.814Z,816.91
2018-10-06T10:08:24.830Z,816.87
2018-10-06T10:09:24.860Z,816.91
2018-10-06T10:10:24.867Z,816.91
2018-10-06T10:11:24.883Z,816.89
2018-10-06T10:12:24.959Z,816.83
2018-10-06T10:13:24.916Z,816.86
2018-10-06T10:14:24.935Z,816.85
2018-10-06T10:15:24.997Z,816.81
2018-10-06T10:16:24.969Z,816.80
2018-10-06T10:17:25.060Z,816.80
2018-10-06T10:18:25.265Z,816.78
2018-10-06T10:19:25.021Z,816.75
2018-10-06T10:20:25.041Z,816.78
2018-10-06T10:21:25.055Z,816.80
2018-10-06T10:22:25.298Z,816.75
2018-10-06T10:23:25.116Z,816.77
2018-10-06T10:24:25.109Z,816.75
2018-10-06T10:25:25.126Z,816.74
2018-10-06T10:26:25.145Z,816.73
2018-10-06T10:27:25.160Z,816.74
2018-10-06T10:28:25.205Z,816.76
2018-10-06T10:29:25.195Z,816.77
2018-10-06T10:30:25.214Z,816.74
2018-10-06T10:31:25.230Z,816.73
2018-10-06T10:32:25.248Z,816.73
2018-10-06T10:33:25.268Z,816.75
2018-10-06T10:34:25.318Z,816.73
2018-10-06T10:35:25.299Z,816.73
2018-10-06T10:36:25.321Z,816.69
2018-10-06T10:37:25.391Z,816.73
2018-10-06T10:38:25.350Z,816.73
2018-10-06T10:39:25.467Z,816.72
2018-10-06T10:40:25.386Z,816.76
2018-10-06T10:41:25.404Z,816.73
2018-10-06T10:42:25.420Z,816.73
2018-10-06T10:43:25.440Z,816.71
2018-10-06T10:44:25.536Z,816.70
2018-10-06T10:45:25.475Z,816.71
2018-10-06T10:46:25.502Z,816.72
2018-10-06T10:47:25.510Z,816.68
2018-10-06T10:48:25.625Z,816.71
2018-10-06T10:49:25.565Z,816.69
2018-10-06T10:50:25.565Z,816.65
2018-10-06T10:51:25.583Z,816.67
2018-10-06T10:52:25.596Z,816.68
2018-10-06T10:53:25.617Z,816.68
2018-10-06T10:54:25.781Z,816.65
2018-10-06T10:55:25.707Z,816.61
2018-10-06T10:56:25.671Z,816.62
2018-10-06T10:57:25.683Z,816.58
2018-10-06T10:58:25.704Z,816.62
2018-10-06T10:59:25.889Z,816.58
2018-10-06T11:00:25.739Z,816.61
2018-10-06T11:01:25.757Z,816.63
2018-10-06T11:02:25.772Z,816.62
2018-10-06T11:03:25.794Z,816.61
2018-10-06T11:04:25.809Z,816.54
2018-10-06T11:05:25.826Z,816.59
2018-10-06T11:06:25.844Z,816.56
2018-10-06T11:07:25.871Z,816.60
2018-10-06T11:08:25.881Z,816.58
2018-10-06T11:09:25.896Z,816.57
2018-10-06T11:10:25.920Z,816.54
2018-10-06T11:11:26.016Z,816.57
2018-10-06T11:12:25.952Z,816.50
2018-10-06T11:13:25.973Z,816.49
2018-10-06T11:14:25.987Z,816.49
2018-10-06T11:15:26.006Z,816.46
2018-10-06T11:16:26.023Z,816.48
2018-10-06T11:17:26.043Z,816.46
2018-10-06T11:18:26.059Z,816.43
2018-10-06T11:19:26.079Z,816.43
2018-10-06T11:20:26.096Z,816.42
2018-10-06T11:21:26.113Z,816.41
2018-10-06T11:22:26.138Z,816.39
2018-10-06T11:23:26.149Z,816.38
2018-10-06T11:24:26.167Z,816.37
2018-10-06T11:25:26.185Z,816.32
2018-10-06T11:26:26.203Z,816.29
2018-10-06T11:27:26.224Z,816.29
2018-10-06T11:28:26.239Z,816.29
2018-10-06T11:29:26.257Z,816.32
2018-10-06T11:30:26.276Z,816.28
2018-10-06T11:31:26.296Z,816.24
2018-10-06T11:32:26.314Z,816.24
2018-10-06T11:33:26.336Z,816.26
2018-10-06T11:34:26.349Z,816.18
2018-10-06T11:35:26.370Z,816.21
2018-10-06T11:36:26.383Z,816.18
2018-10-06T11:37:26.508Z,816.16
2018-10-06T11:38:26.420Z,816.15
2018-10-06T11:39:26.450Z,816.15
2018-10-06T11:40:26.457Z,816.18
2018-10-06T11:41:26.473Z,816.11
2018-10-06T11:42:26.492Z,816.07
2018-10-06T11:43:26.511Z,816.07
2018-10-06T11:44:26.528Z,816.05
2018-10-06T11:45:26.551Z,816.06
2018-10-06T11:46:26.565Z,816.02
2018-10-06T11:47:26.588Z,816.00
2018-10-06T11:48:26.600Z,815.99
2018-10-06T11:49:26.618Z,815.91
2018-10-06T11:50:26.746Z,815.95
2018-10-06T11:51:26.655Z,815.96
2018-10-06T11:52:26.671Z,815.91
2018-10-06T11:53:26.691Z,815.92
2018-10-06T11:54:26.710Z,815.89
2018-10-06T11:55:26.737Z,815.89
2018-10-06T11:56:26.749Z,815.90
2018-10-06T11:57:26.764Z,815.88
2018-10-06T11:58:26.784Z,815.83
2018-10-06T11:59:26.801Z,815.87
2018-10-06T12:00:26.929Z,815.81
2018-10-06T12:01:26.838Z,815.77
2018-10-06T12:02:26.855Z,815.78
2018-10-06T12:03:26.875Z,815.82
2018-10-06T12:04:26.892Z,815.79
2018-10-06T12:05:26.913Z,815.83
2018-10-06T12:06:26.930Z,815.82
2018-10-06T12:07:26.946Z,815.79
2018-10-06T12:08:26.966Z,815.81
2018-10-06T12:09:26.983Z,815.78
2018-10-06T12:10:27.006Z,815.79
2018-10-06T12:11:27.021Z,815.77
2018-10-06T12:12:27.050Z,815.77
2018-10-06T12:13:27.056Z,815.78
2018-10-06T12:14:27.076Z,815.76
2018-10-06T12:15:27.094Z,815.75
2018-10-06T12:16:27.112Z,815.77
2018-10-06T12:17:27.128Z,815.73
2018-10-06T12:18:27.148Z,815.72
2018-10-06T12:19:27.167Z,815.75
2018-10-06T12:20:27.246Z,815.72
2018-10-06T12:21:27.202Z,815.72
2018-10-06T12:22:27.220Z,815.71
2018-10-06T12:23:27.240Z,815.69
2018-10-06T12:24:27.260Z,815.69
2018-10-06T12:25:27.274Z,815.69
2018-10-06T12:26:27.293Z,815.67
2018-10-06T12:27:27.311Z,815.65
2018-10-06T12:28:27.329Z,815.68